Time;durP1;ratioP1;P1;durP2;ratioP2;P2;SDS_P1;SDS_P2;PMS_P1;PMS_P2;Temp;Humidity;BMP_temperature;BMP_pressure;BME280_temperature;BME280_humidity;BME280_pressure;Samples;Min_cycle;Max_cycle;Signal;HPM_P1;HPM_P2
2022/07/07 00:00:43;;;;;;;1.67;0.98;;;;;;;21.14;43.87;99821.38;4357024;32;33537;-85
2022/07/07 00:03:12;;;;;;;0.80;0.80;;;;;;;21.20;43.65;99822.84;4357109;32;34535;-85
2022/07/07 00:05:41;;;;;;;1.20;0.73;;;;;;;21.03;43.63;99824.63;4357578;32;33669;-85
2022/07/07 00:08:10;;;;;;;1.50;1.05;;;;;;;20.80;43.89;99830.28;4356906;32;35574;-85
2022/07/07 00:10:39;;;;;;;0.80;0.80;;;;;;;20.91;42.93;99827.09;4357539;32;35548;-85
2022/07/07 00:13:08;;;;;;;0.88;0.80;;;;;;;21.14;42.06;99828.47;4370176;32;34525;-85
2022/07/07 00:15:37;;;;;;;2.17;0.90;;;;;;;21.13;43.26;99830.25;4356033;32;34006;-85
2022/07/07 00:18:07;;;;;;;1.00;0.80;;;;;;;21.02;43.29;99832.59;4356329;32;34293;-85
2022/07/07 00:20:36;;;;;;;2.00;0.93;;;;;;;20.83;43.47;99828.34;4356864;32;34572;-85
2022/07/07 00:23:05;;;;;;;0.95;0.88;;;;;;;21.02;43.35;99830.84;4357193;32;33720;-85
2022/07/07 00:25:34;;;;;;;1.35;0.80;;;;;;;20.88;43.78;99831.59;4362086;32;33373;-85
2022/07/07 00:28:02;;;;;;;0.85;0.80;;;;;;;20.78;43.67;99825.09;4356306;32;33700;-85
2022/07/07 00:30:31;;;;;;;1.67;1.00;;;;;;;20.87;43.89;99826.37;4356497;32;34032;-85
2022/07/07 00:33:00;;;;;;;1.23;0.80;;;;;;;20.72;44.26;99830.69;4356267;32;34179;-85
2022/07/07 00:35:30;;;;;;;0.80;0.80;;;;;;;20.62;44.20;99827.69;4356400;32;32967;-85
2022/07/07 00:37:59;;;;;;;1.40;0.90;;;;;;;20.76;44.22;99824.34;4362198;32;33076;-85
2022/07/07 00:40:28;;;;;;;1.60;1.00;;;;;;;20.78;43.76;99817.19;4356868;32;33879;-85
2022/07/07 00:42:57;;;;;;;1.20;0.68;;;;;;;20.69;44.66;99822.94;4356220;32;33611;-85
2022/07/07 00:45:26;;;;;;;1.25;0.90;;;;;;;20.64;44.99;99822.34;4356825;32;33466;-85
2022/07/07 00:47:55;;;;;;;1.70;1.10;;;;;;;20.53;45.25;99824.66;4356763;32;33458;-85
2022/07/07 00:50:24;;;;;;;1.45;1.00;;;;;;;20.48;44.85;99824.88;4362356;32;34052;-85
2022/07/07 00:52:55;;;;;;;2.08;1.15;;;;;;;20.51;44.97;99822.09;4362383;32;33293;-85
2022/07/07 00:55:24;;;;;;;1.23;0.85;;;;;;;20.37;45.65;99825.47;4342091;33;32342;-85
2022/07/07 00:57:53;;;;;;;1.55;1.10;;;;;;;20.34;45.53;99827.38;4341864;33;34472;-85
2022/07/07 01:00:22;;;;;;;3.53;1.05;;;;;;;20.29;46.04;99840.78;4342187;33;34613;-85
2022/07/07 01:02:53;;;;;;;1.60;1.10;;;;;;;20.44;45.53;99834.75;4352225;32;33855;-85
2022/07/07 01:05:24;;;;;;;1.62;1.08;;;;;;;20.53;45.51;99833.41;4362042;32;33951;-85
2022/07/07 01:07:52;;;;;;;1.50;1.00;;;;;;;20.54;45.62;99829.84;4356509;32;33505;-85
2022/07/07 01:10:23;;;;;;;0.88;0.82;;;;;;;20.44;45.34;99832.13;4356882;32;34080;-85
2022/07/07 01:12:51;;;;;;;1.52;1.10;;;;;;;20.34;45.62;99830.84;4356284;32;36181;-85
2022/07/07 01:15:20;;;;;;;0.77;0.75;;;;;;;20.44;44.95;99829.47;4356607;32;33384;-85
2022/07/07 01:17:49;;;;;;;0.98;0.80;;;;;;;20.45;44.95;99827.69;4362060;32;34571;-85
2022/07/07 01:20:20;;;;;;;0.70;0.70;;;;;;;20.27;45.82;99828.63;4356603;32;33589;-85
2022/07/07 01:22:52;;;;;;;2.10;1.10;;;;;;;20.27;45.62;99832.09;4356460;32;34203;-85
2022/07/07 01:25:21;;;;;;;;;;;;;;;20.49;45.34;99829.25;4356947;32;33845;-85
2022/07/07 01:27:50;;;;;;;1.30;1.00;;;;;;;20.43;45.21;99829.53;4358870;32;34121;-85
2022/07/07 01:30:19;;;;;;;1.62;1.08;;;;;;;20.36;45.55;99836.91;4361825;32;33523;-85
2022/07/07 01:32:48;;;;;;;1.27;0.90;;;;;;;20.39;45.89;99834.13;4360627;32;33889;-85
2022/07/07 01:35:17;;;;;;;2.75;0.98;;;;;;;20.32;46.12;99826.59;4356501;32;33568;-84
2022/07/07 01:37:46;;;;;;;1.55;0.90;;;;;;;20.29;46.48;99830.25;4356266;32;33851;-85
2022/07/07 01:40:18;;;;;;;1.65;0.90;;;;;;;20.29;46.64;99827.59;4356365;32;33904;-85
2022/07/07 01:42:47;;;;;;;0.85;0.85;;;;;;;20.25;46.11;99826.94;4359155;32;33306;-85
2022/07/07 01:45:16;;;;;;;1.00;0.90;;;;;;;20.24;46.47;99827.00;4361977;32;34011;-85
2022/07/07 01:47:45;;;;;;;2.20;0.98;;;;;;;20.21;46.53;99830.63;4357329;32;33838;-85
2022/07/07 01:50:14;;;;;;;1.00;0.88;;;;;;;20.34;46.62;99836.13;4356443;32;33902;-85
2022/07/07 01:52:42;;;;;;;1.48;0.98;;;;;;;20.16;46.87;99837.09;4356227;32;34661;-85
2022/07/07 01:55:11;;;;;;;0.90;0.80;;;;;;;19.95;47.19;99828.47;4343162;32;31726;-85
2022/07/07 01:57:42;;;;;;;1.98;1.12;;;;;;;19.87;47.44;99831.47;4360631;32;34001;-85
2022/07/07 02:00:12;;;;;;;1.52;0.98;;;;;;;19.89;47.47;99831.41;4341790;32;35962;-85
2022/07/07 02:02:41;;;;;;;0.85;0.85;;;;;;;20.09;46.84;99836.53;4341218;33;33665;-85
2022/07/07 02:05:10;;;;;;;0.88;0.80;;;;;;;20.02;47.14;99835.97;4342077;33;32911;-85
2022/07/07 02:07:38;;;;;;;1.35;0.98;;;;;;;20.03;47.25;99832.44;4355228;32;34653;-85
2022/07/07 02:10:08;;;;;;;1.75;0.98;;;;;;;20.02;47.13;99835.97;4361522;32;34073;-85
2022/07/07 02:12:36;;;;;;;1.20;1.00;;;;;;;19.89;47.50;99832.25;4356306;32;33858;-85
2022/07/07 02:15:08;;;;;;;1.60;1.50;;;;;;;19.87;47.49;99831.47;4355795;32;32980;-85
2022/07/07 02:17:37;;;;;;;1.10;1.00;;;;;;;19.81;47.91;99832.66;4356148;32;33527;-85
2022/07/07 02:20:07;;;;;;;1.37;1.10;;;;;;;19.80;48.22;99827.44;4355987;32;33909;-85
2022/07/07 02:22:38;;;;;;;1.70;1.05;;;;;;;19.84;48.26;99831.66;4364782;32;33848;-85
2022/07/07 02:25:07;;;;;;;1.52;1.10;;;;;;;19.71;48.58;99830.53;4376364;32;33446;-85
2022/07/07 02:27:36;;;;;;;1.90;1.10;;;;;;;19.53;48.99;99833.09;4371138;32;33721;-85
2022/07/07 02:30:08;;;;;;;1.27;0.95;;;;;;;19.64;49.04;99831.72;4356167;32;34475;-85
2022/07/07 02:32:37;;;;;;;2.08;1.85;;;;;;;19.38;49.28;99834.69;4355976;32;33587;-85
2022/07/07 02:35:06;;;;;;;0.98;0.90;;;;;;;19.50;48.73;99843.78;4355888;32;33159;-85
2022/07/07 02:37:35;;;;;;;1.58;1.12;;;;;;;19.58;48.56;99848.66;4361278;32;34316;-85
2022/07/07 02:40:05;;;;;;;1.17;0.90;;;;;;;19.45;48.99;99845.78;4355709;32;33868;-85
2022/07/07 02:42:34;;;;;;;1.27;0.98;;;;;;;19.33;48.42;99846.31;4355791;32;33901;-85
2022/07/07 02:45:04;;;;;;;1.42;1.08;;;;;;;19.40;48.74;99850.38;4355454;32;33371;-85
2022/07/07 02:47:34;;;;;;;1.48;1.15;;;;;;;19.44;49.14;99848.47;4355657;32;34621;-85
2022/07/07 02:50:03;;;;;;;1.85;1.15;;;;;;;19.28;49.74;99845.69;4361353;32;33705;-85
2022/07/07 02:52:32;;;;;;;1.87;1.10;;;;;;;19.51;49.44;99845.47;4346312;32;32944;-85
2022/07/07 02:55:01;;;;;;;0.90;0.90;;;;;;;19.38;49.54;99847.81;4355689;32;33410;-85
2022/07/07 02:57:30;;;;;;;1.42;0.90;;;;;;;19.46;49.71;99850.09;4355154;32;33762;-85
2022/07/07 02:59:59;;;;;;;1.50;1.10;;;;;;;19.29;50.15;99845.62;4357375;32;34465;-85
2022/07/07 03:02:28;;;;;;;1.27;1.10;;;;;;;19.22;50.47;99853.88;4343759;32;33278;-86
2022/07/07 03:04:58;;;;;;;1.50;1.20;;;;;;;19.24;50.47;99852.88;4362852;32;33315;-85
2022/07/07 03:07:27;;;;;;;3.53;1.42;;;;;;;18.80;50.92;99849.63;4357358;32;33224;-85
2022/07/07 03:09:56;;;;;;;1.77;1.10;;;;;;;19.05;50.53;99847.59;4357018;32;33742;-85
2022/07/07 03:12:25;;;;;;;2.65;0.98;;;;;;;19.14;50.65;99849.81;4357509;32;34031;-85
2022/07/07 03:14:54;;;;;;;1.95;1.30;;;;;;;18.85;51.20;99847.66;4357575;32;34302;-85
2022/07/07 03:17:23;;;;;;;1.40;1.02;;;;;;;19.09;51.05;99849.19;4362897;32;34072;-85
2022/07/07 03:19:52;;;;;;;1.27;0.90;;;;;;;19.20;51.10;99851.31;4357270;32;33562;-85
2022/07/07 03:22:22;;;;;;;2.03;1.15;;;;;;;19.12;50.82;99837.66;4357678;32;33134;-85
2022/07/07 03:24:51;;;;;;;1.77;1.15;;;;;;;19.21;50.67;99846.88;4357007;32;32886;-85
2022/07/07 03:27:20;;;;;;;1.27;1.17;;;;;;;19.09;51.14;99843.91;4357406;32;34207;-85
2022/07/07 03:29:49;;;;;;;1.73;1.10;;;;;;;18.97;51.50;99847.13;4362946;32;34365;-85
2022/07/07 03:32:17;;;;;;;1.12;1.00;;;;;;;19.24;51.13;99839.72;4357335;32;34055;-85
2022/07/07 03:34:46;;;;;;;2.10;1.15;;;;;;;19.42;50.66;99852.94;4357012;32;33302;-85
2022/07/07 03:37:15;;;;;;;2.08;1.10;;;;;;;19.50;50.09;99849.03;4357141;32;33910;-85
2022/07/07 03:39:45;;;;;;;3.30;1.30;;;;;;;19.21;51.26;99852.16;4357309;32;33784;-85
2022/07/07 03:42:14;;;;;;;1.62;1.27;;;;;;;19.37;51.04;99848.72;4360228;32;33462;-85
2022/07/07 03:44:43;;;;;;;2.05;1.12;;;;;;;19.32;50.10;99849.88;4362516;32;32967;-85
2022/07/07 03:47:13;;;;;;;2.17;1.23;;;;;;;19.48;50.09;99848.25;4357646;32;33801;-85
2022/07/07 03:49:49;;;;;;;1.33;1.02;;;;;;;19.44;50.02;99853.72;4357255;32;34755;-85
2022/07/07 03:52:18;;;;;;;1.08;0.95;;;;;;;19.48;50.06;99853.50;4365242;32;34448;-85
2022/07/07 03:54:50;;;;;;;3.15;1.40;;;;;;;19.52;50.10;99851.56;4358063;32;33315;-85
2022/07/07 03:57:19;;;;;;;1.37;1.10;;;;;;;19.43;50.20;99854.66;4362837;32;33919;-85
2022/07/07 03:59:48;;;;;;;1.37;1.08;;;;;;;19.46;50.51;99847.47;4344566;32;34734;-85
2022/07/07 04:02:17;;;;;;;2.05;0.95;;;;;;;19.48;50.83;99845.62;4342259;33;33721;-85
2022/07/07 04:04:46;;;;;;;1.62;1.08;;;;;;;19.39;50.86;99846.88;4341979;33;33361;-85
2022/07/07 04:07:15;;;;;;;2.92;1.00;;;;;;;19.65;50.53;99849.22;4348861;32;33756;-85
2022/07/07 04:09:43;;;;;;;1.67;1.10;;;;;;;19.75;50.12;99839.97;4361222;32;34068;-85
2022/07/07 04:12:14;;;;;;;1.08;1.00;;;;;;;19.79;50.24;99841.56;4356919;32;33845;-85
2022/07/07 04:14:43;;;;;;;1.35;1.10;;;;;;;19.83;50.39;99837.81;4356976;32;33383;-85
2022/07/07 04:17:11;;;;;;;3.50;1.50;;;;;;;19.92;50.05;99836.53;4357146;32;33646;-85
2022/07/07 04:19:40;;;;;;;3.80;1.52;;;;;;;20.02;49.86;99846.50;4356997;32;33636;-85
2022/07/07 04:22:09;;;;;;;1.92;1.40;;;;;;;20.07;49.89;99838.38;4358108;32;33756;-86
2022/07/07 04:24:38;;;;;;;3.30;1.30;;;;;;;20.20;48.77;99833.37;4362472;32;33327;-85
2022/07/07 04:27:08;;;;;;;1.83;1.10;;;;;;;20.23;48.62;99836.69;4356342;32;34166;-85
2022/07/07 04:29:39;;;;;;;1.27;1.10;;;;;;;20.43;48.66;99837.44;4357054;32;33825;-85
2022/07/07 04:32:09;;;;;;;0.95;0.90;;;;;;;20.38;48.59;99829.78;4356710;32;33973;-85
2022/07/07 04:34:37;;;;;;;2.05;1.10;;;;;;;20.44;48.40;99826.84;4358244;32;34125;-84
2022/07/07 04:37:06;;;;;;;1.45;0.90;;;;;;;20.66;48.29;99829.25;4362478;32;33652;-85
2022/07/07 04:39:37;;;;;;;1.80;0.98;;;;;;;20.58;47.96;99833.19;4356464;32;33946;-84
2022/07/07 04:42:06;;;;;;;;;;;;;;;20.79;47.41;99836.50;4357143;32;33277;-84
2022/07/07 04:44:35;;;;;;;1.58;1.00;;;;;;;20.89;47.76;99832.44;4363382;32;33933;-85
2022/07/07 04:47:05;;;;;;;2.25;1.12;;;;;;;20.88;48.42;99838.66;4361833;32;34710;-85
2022/07/07 04:49:34;;;;;;;1.98;1.20;;;;;;;21.24;47.49;99833.16;4362333;32;33994;-85
2022/07/07 04:52:03;;;;;;;1.33;1.00;;;;;;;21.89;46.34;99829.53;4356361;32;34771;-84
2022/07/07 04:54:32;;;;;;;1.33;1.00;;;;;;;22.30;45.04;99844.78;4358737;32;33823;-84
2022/07/07 04:57:01;;;;;;;1.87;1.00;;;;;;;23.23;43.54;99840.91;4356279;32;34664;-84
2022/07/07 04:59:30;;;;;;;1.27;0.90;;;;;;;23.83;41.90;99842.38;4355153;32;33918;-85
2022/07/07 05:01:59;;;;;;;1.75;1.20;;;;;;;24.69;38.81;99840.13;4359176;32;34441;-85
2022/07/07 05:04:29;;;;;;;1.85;1.15;;;;;;;25.14;38.98;99839.63;4360577;32;33308;-85
2022/07/07 05:06:58;;;;;;;0.87;0.83;;;;;;;25.82;37.49;99835.56;4355635;32;33619;-84
2022/07/07 05:09:27;;;;;;;3.08;1.10;;;;;;;26.40;36.54;99841.84;4355779;32;34619;-85
2022/07/07 05:11:56;;;;;;;2.90;1.65;;;;;;;26.88;35.64;99840.00;4355795;32;33445;-85
2022/07/07 05:14:25;;;;;;;1.55;0.90;;;;;;;26.95;35.87;99843.88;4354701;32;33861;-85
2022/07/07 05:16:54;;;;;;;1.70;1.05;;;;;;;27.30;33.75;99843.72;4360146;32;34168;-84
2022/07/07 05:19:23;;;;;;;1.45;1.02;;;;;;;27.22;34.24;99839.03;4359074;32;33253;-84
2022/07/07 05:21:53;;;;;;;1.27;0.98;;;;;;;27.34;34.85;99845.19;4355837;32;33042;-85
2022/07/07 05:24:25;;;;;;;1.40;0.80;;;;;;;27.50;34.54;99844.81;4354604;32;33135;-85
2022/07/07 05:26:54;;;;;;;1.25;1.00;;;;;;;27.67;34.59;99838.94;4356137;32;33457;-85
2022/07/07 05:29:23;;;;;;;1.10;0.90;;;;;;;27.67;33.35;99841.59;4362110;32;33910;-85
2022/07/07 05:31:51;;;;;;;2.53;0.80;;;;;;;27.76;33.31;99833.81;4356849;32;34298;-85
2022/07/07 05:34:20;;;;;;;1.70;1.08;;;;;;;27.82;33.28;99831.50;4356827;32;33300;-84
2022/07/07 05:36:49;;;;;;;3.78;0.95;;;;;;;27.77;33.00;99838.19;4356795;32;33818;-85
2022/07/07 05:39:19;;;;;;;2.33;1.10;;;;;;;27.81;32.32;99844.94;4356477;32;33903;-85
2022/07/07 05:41:48;;;;;;;1.95;1.05;;;;;;;27.65;32.56;99840.87;4361677;32;33879;-85
2022/07/07 05:44:17;;;;;;;1.48;1.10;;;;;;;27.85;31.58;99841.91;4360515;32;34150;-85
2022/07/07 05:46:46;;;;;;;1.10;0.70;;;;;;;27.73;32.27;99842.06;4356007;32;34701;-85
2022/07/07 05:49:15;;;;;;;1.35;0.80;;;;;;;27.78;32.43;99846.03;4356481;32;33521;-85
2022/07/07 05:51:44;;;;;;;2.50;0.80;;;;;;;27.71;32.15;99844.00;4356282;32;33743;-85
2022/07/07 05:54:13;;;;;;;1.58;0.95;;;;;;;27.42;31.72;99842.78;4356411;32;33197;-85
2022/07/07 05:56:43;;;;;;;1.50;0.93;;;;;;;27.73;32.18;99845.56;4361740;32;34207;-85
2022/07/07 05:59:12;;;;;;;1.08;0.80;;;;;;;27.62;31.70;99840.28;4356527;32;33771;-85
2022/07/07 06:01:41;;;;;;;0.90;0.73;;;;;;;27.89;32.04;99842.53;4355829;32;35037;-84
2022/07/07 06:04:10;;;;;;;1.42;1.00;;;;;;;27.99;31.23;99842.59;4356025;32;33517;-85
2022/07/07 06:06:39;;;;;;;0.95;0.75;;;;;;;27.65;31.96;99840.03;4348334;32;33907;-85
2022/07/07 06:09:07;;;;;;;1.15;0.77;;;;;;;27.38;32.06;99843.13;4351900;32;34822;-84
2022/07/07 06:11:38;;;;;;;1.15;0.90;;;;;;;27.13;32.74;99846.88;4371163;32;33538;-85
2022/07/07 06:14:08;;;;;;;2.37;1.30;;;;;;;27.09;33.12;99842.78;4370987;32;33246;-85
2022/07/07 06:16:41;;;;;;;0.77;0.75;;;;;;;26.89;33.53;99844.34;4371018;32;32922;-85
2022/07/07 06:19:13;;;;;;;2.03;1.05;;;;;;;26.89;33.23;99839.84;4371365;32;33985;-85
2022/07/07 06:21:42;;;;;;;1.33;0.90;;;;;;;26.54;33.93;99845.28;4375864;32;34570;-84
2022/07/07 06:24:11;;;;;;;1.08;0.80;;;;;;;26.50;34.23;99841.13;4376117;32;33900;-84
2022/07/07 06:26:40;;;;;;;1.42;0.88;;;;;;;26.21;34.10;99838.88;4361210;32;34483;-85
2022/07/07 06:29:10;;;;;;;1.98;0.93;;;;;;;26.47;33.65;99844.88;4356450;32;34699;-85
2022/07/07 06:31:39;;;;;;;0.98;0.90;;;;;;;26.28;34.10;99844.59;4355816;32;33737;-85
2022/07/07 06:34:08;;;;;;;0.77;0.70;;;;;;;26.17;33.46;99845.41;4357142;32;34201;-85
2022/07/07 06:36:37;;;;;;;1.70;0.80;;;;;;;25.90;34.13;99843.88;4363238;32;34554;-85
2022/07/07 06:39:06;;;;;;;1.77;0.90;;;;;;;25.91;33.77;99837.59;4344410;32;33514;-85
2022/07/07 06:41:36;;;;;;;2.87;0.85;;;;;;;26.06;34.49;99840.91;4357863;32;33759;-85
2022/07/07 06:44:05;;;;;;;10.90;2.53;;;;;;;26.24;32.65;99838.69;4357791;32;33886;-85
2022/07/07 06:46:36;;;;;;;2.27;1.33;;;;;;;26.24;34.29;99837.81;4365365;32;34678;-85
2022/07/07 06:49:05;;;;;;;1.37;1.02;;;;;;;26.05;34.87;99841.03;4377845;32;33462;-85
2022/07/07 06:51:34;;;;;;;3.20;1.10;;;;;;;26.28;33.81;99842.78;4342880;33;33542;-85
2022/07/07 06:54:03;;;;;;;1.42;0.82;;;;;;;26.17;34.00;99840.09;4343056;33;34015;-85
2022/07/07 06:56:32;;;;;;;1.55;0.95;;;;;;;26.08;34.70;99835.47;4342452;33;34499;-85
2022/07/07 06:59:03;;;;;;;0.85;0.80;;;;;;;26.19;34.22;99835.50;4342465;33;34658;-85
2022/07/07 07:01:32;;;;;;;2.03;0.98;;;;;;;26.09;33.82;99834.50;4348137;33;33476;-85
2022/07/07 07:04:02;;;;;;;1.45;0.98;;;;;;;26.36;34.09;99837.72;4333253;33;36098;-85
2022/07/07 07:06:31;;;;;;;1.27;0.90;;;;;;;26.45;34.28;99835.31;4349745;32;33151;-85
2022/07/07 07:09:00;;;;;;;1.20;0.80;;;;;;;26.51;34.38;99842.84;4357551;32;33809;-85
2022/07/07 07:11:29;;;;;;;1.45;0.80;;;;;;;26.59;33.78;99840.47;4357624;32;33428;-85
2022/07/07 07:14:01;;;;;;;1.37;1.00;;;;;;;26.60;33.63;99843.00;4357602;32;33288;-85
2022/07/07 07:16:30;;;;;;;1.40;0.70;;;;;;;26.79;33.15;99842.41;4362368;32;33667;-85
2022/07/07 07:19:00;;;;;;;2.22;1.10;;;;;;;26.67;33.06;99840.69;4356645;32;34807;-85
2022/07/07 07:21:30;;;;;;;1.12;0.68;;;;;;;26.75;33.53;99838.31;4356688;32;34332;-85
2022/07/07 07:23:59;;;;;;;1.58;0.82;;;;;;;26.52;33.63;99832.06;4357330;32;32903;-84
2022/07/07 07:26:27;;;;;;;0.65;0.57;;;;;;;26.46;32.86;99831.69;4357563;32;33910;-85
2022/07/07 07:28:56;;;;;;;2.60;1.05;;;;;;;26.75;33.00;99829.47;4362552;32;33887;-85
2022/07/07 07:31:25;;;;;;;2.30;0.93;;;;;;;27.04;32.73;99835.16;4356486;32;33772;-85
2022/07/07 07:33:53;;;;;;;1.98;1.00;;;;;;;27.03;34.10;99828.13;4356987;32;33159;-85
2022/07/07 07:36:22;;;;;;;1.08;0.80;;;;;;;26.73;33.98;99816.28;4356433;32;34377;-85
2022/07/07 07:38:52;;;;;;;1.10;0.82;;;;;;;26.62;34.69;99823.41;4356829;32;33573;-85
2022/07/07 07:41:21;;;;;;;2.03;1.17;;;;;;;26.60;34.65;99826.16;4361870;32;34601;-84
2022/07/07 07:43:49;;;;;;;1.02;0.80;;;;;;;26.53;33.27;99824.91;4357936;32;33961;-85
2022/07/07 07:46:19;;;;;;;2.00;0.80;;;;;;;27.02;32.17;99823.78;4356851;32;34471;-85
2022/07/07 07:48:48;;;;;;;1.37;0.98;;;;;;;26.88;33.33;99832.84;4357277;32;34877;-85
2022/07/07 07:51:16;;;;;;;1.05;0.90;;;;;;;26.94;32.83;99829.72;4356994;32;33701;-85
2022/07/07 07:53:45;;;;;;;2.22;1.00;;;;;;;27.05;32.54;99828.84;4358192;32;33729;-85
2022/07/07 07:56:15;;;;;;;2.97;1.00;;;;;;;27.30;31.94;99834.91;4348954;32;34091;-85
2022/07/07 07:58:44;;;;;;;1.40;0.80;;;;;;;26.50;32.37;99826.00;4354216;32;33917;-85
2022/07/07 08:01:13;;;;;;;1.65;1.00;;;;;;;26.71;31.57;99820.88;4360212;32;33783;-84
2022/07/07 08:03:42;;;;;;;1.33;0.85;;;;;;;26.81;32.27;99832.47;4356851;32;33981;-85
2022/07/07 08:06:10;;;;;;;0.95;0.80;;;;;;;26.71;31.08;99828.00;4356548;32;34573;-85
2022/07/07 08:08:39;;;;;;;1.10;0.70;;;;;;;26.70;32.18;99827.19;4362273;32;33570;-85
2022/07/07 08:11:08;;;;;;;1.52;0.93;;;;;;;26.71;32.54;99823.53;4355946;32;34637;-84
2022/07/07 08:13:38;;;;;;;1.20;0.68;;;;;;;27.16;30.78;99827.97;4356769;32;33625;-85
2022/07/07 08:16:07;;;;;;;1.13;0.87;;;;;;;26.76;31.67;99821.34;4356611;32;33902;-85
2022/07/07 08:18:36;;;;;;;1.77;0.88;;;;;;;27.06;33.41;99822.53;4357793;32;34383;-85
2022/07/07 08:21:05;;;;;;;1.42;0.90;;;;;;;27.20;32.46;99824.13;4361884;32;34517;-85
2022/07/07 08:23:33;;;;;;;2.33;0.90;;;;;;;27.49;32.55;99824.44;4356393;32;33194;-85
2022/07/07 08:26:05;;;;;;;1.65;1.12;;;;;;;27.62;31.83;99824.31;4356015;32;34564;-85
2022/07/07 08:28:34;;;;;;;1.27;0.90;;;;;;;27.76;32.07;99829.31;4356401;32;34616;-85
2022/07/07 08:31:12;;;;;;;1.98;1.00;;;;;;;27.77;30.46;99822.19;4356254;32;33463;-86
2022/07/07 08:33:40;;;;;;;4.07;0.90;;;;;;;27.72;32.49;99821.72;4356313;32;32728;-85
2022/07/07 08:36:09;;;;;;;1.85;1.58;;;;;;;27.94;33.11;99824.31;4361714;32;33772;-85
2022/07/07 08:38:38;;;;;;;2.30;1.08;;;;;;;27.87;32.60;99823.13;4356831;32;34727;-85
2022/07/07 08:41:06;;;;;;;1.75;0.80;;;;;;;28.25;32.32;99816.41;4355971;32;34195;-85
2022/07/07 08:43:35;;;;;;;0.98;0.60;;;;;;;28.00;31.58;99813.13;4356343;32;33227;-86
2022/07/07 08:46:04;;;;;;;0.75;0.70;;;;;;;28.06;32.49;99817.94;4356995;32;33722;-85
2022/07/07 08:48:34;;;;;;;0.98;0.82;;;;;;;27.88;33.22;99819.47;4362027;32;34065;-85
2022/07/07 08:51:04;;;;;;;3.08;0.80;;;;;;;27.85;34.68;99825.09;4359083;32;32770;-85
2022/07/07 08:53:34;;;;;;;2.30;1.15;;;;;;;27.78;35.14;99816.72;4356785;32;33298;-85
2022/07/07 08:56:05;;;;;;;2.40;1.02;;;;;;;27.50;33.84;99812.81;4342428;32;34549;-85
2022/07/07 08:58:35;;;;;;;;;;;;;;;27.57;33.75;99808.69;4355719;32;34631;-85
2022/07/07 09:01:24;;;;;;;1.15;0.90;;;;;;;27.67;34.50;99806.09;4356104;32;34283;-85
2022/07/07 09:03:54;;;;;;;1.05;0.60;;;;;;;27.83;35.79;99805.69;4361701;32;33417;-85
2022/07/07 09:06:23;;;;;;;1.23;0.73;;;;;;;27.83;35.52;99808.38;4349946;32;34707;-85
2022/07/07 09:08:53;;;;;;;2.00;1.00;;;;;;;27.96;35.74;99810.87;4340434;33;34035;-85
2022/07/07 09:11:25;;;;;;;2.08;0.90;;;;;;;28.18;33.70;99802.75;4347109;32;33480;-85
2022/07/07 09:13:58;;;;;;;2.15;1.00;;;;;;;28.29;33.05;99800.00;4356605;32;33323;-85
2022/07/07 09:16:36;;;;;;;0.85;0.60;;;;;;;28.27;32.99;99801.97;4361678;32;34303;-85
2022/07/07 09:19:18;;;;;;;1.58;0.82;;;;;;;28.47;32.39;99797.59;4361765;32;34012;-85
2022/07/07 09:21:47;;;;;;;1.15;0.77;;;;;;;28.52;31.54;99791.03;4356860;32;34087;-86
2022/07/07 09:24:16;;;;;;;1.40;0.80;;;;;;;28.66;32.25;99801.34;4356623;32;33445;-85
2022/07/07 09:26:46;;;;;;;1.83;0.90;;;;;;;28.57;31.39;99794.16;4364192;32;33840;-86
2022/07/07 09:29:18;;;;;;;1.50;0.93;;;;;;;28.96;31.08;99803.16;4371295;32;33811;-86
2022/07/07 09:31:55;;;;;;;1.12;0.80;;;;;;;29.08;29.03;99798.59;4377172;32;33781;-86
2022/07/07 09:34:28;;;;;;;1.58;1.00;;;;;;;29.22;28.79;99811.56;4377062;32;33699;-86
2022/07/07 09:39:45;;;;;;;2.20;1.00;;;;;;;29.26;29.74;99812.09;4371585;32;33695;-86
2022/07/07 09:42:36;;;;;;;1.30;0.88;;;;;;;29.35;29.05;99801.44;4344363;32;33785;-86
2022/07/07 09:45:06;;;;;;;1.10;0.82;;;;;;;29.29;29.07;99810.03;4356506;32;33315;-86
2022/07/07 09:47:35;;;;;;;1.00;0.70;;;;;;;29.48;28.05;99801.19;4342554;32;35856;-86
2022/07/07 09:50:11;;;;;;;3.08;0.90;;;;;;;29.53;27.76;99806.12;4362008;32;34655;-86
2022/07/07 09:52:42;;;;;;;4.43;0.80;;;;;;;29.78;28.87;99807.44;4357547;32;34503;-86
2022/07/07 09:55:12;;;;;;;2.15;1.10;;;;;;;29.50;28.31;99814.41;4356466;32;33561;-86
2022/07/07 09:57:42;;;;;;;1.45;0.70;;;;;;;29.66;26.70;99806.72;4354827;32;33787;-86
2022/07/07 10:00:12;;;;;;;1.10;0.80;;;;;;;29.72;27.30;99808.84;4356425;32;33260;-86
2022/07/07 10:02:42;;;;;;;1.17;0.70;;;;;;;29.83;27.01;99790.97;4356316;32;34399;-87
2022/07/07 10:05:13;;;;;;;0.60;0.60;;;;;;;30.03;25.40;99795.28;4361722;32;33929;-88
2022/07/07 10:07:43;;;;;;;1.02;0.55;;;;;;;29.76;26.90;99793.34;4341782;32;34341;-87
2022/07/07 10:10:13;;;;;;;0.62;0.60;;;;;;;29.61;27.45;99798.25;4341573;33;34734;-87
2022/07/07 10:12:45;;;;;;;1.23;0.77;;;;;;;29.19;26.47;99793.13;4357398;32;33610;-87
2022/07/07 10:15:14;;;;;;;1.20;0.85;;;;;;;29.23;27.82;99799.88;4342278;32;34489;-88
2022/07/07 10:17:44;;;;;;;1.35;1.00;;;;;;;29.02;25.09;99797.28;4360698;32;33725;-87
2022/07/07 10:20:14;;;;;;;1.67;0.60;;;;;;;28.65;26.47;99796.97;4354465;32;33880;-87
